Swift Arrow — WAFK — position and weather

sailwx.info

Track history (hours):
 
Tides and Currents Weather Stations Pressure Air Temp Water Temp Dewpoint Dewpoint Depression Visibility Wind Speed Wind Dir Waves Ship Positions

Swift Arrow

Owner: ARROW LAUNCH SERVICE INC, Port Angeles, WA. More information available from US FCC via Universal Licensing System and Coast Guard Vessel Documentation Center.

Last reported at 2016-Jun-29 03:03 UTC. Time now 2016-Jun-29 14:42 UTC.
Position N 47°17' W 122°25'.

Type: Port tender. MMSI: 369021000.

Date/timePositionNaut miles runAvg speedWind from/ knotsBaromVisibWave heightAir tempDewpointWater temp
2016-Jun-29 03:03N 47°17' W 122°25'1 1.6
2016-Jun-29 02:33N 47°16' W 122°25'0 0.1
2016-Jun-29 01:33N 47°16' W 122°25'0 0.1
2016-Jun-29 00:33N 47°16' W 122°25'0 0.1
2016-Jun-28 23:34N 47°16' W 122°25'0 0.0
2016-Jun-28 22:33N 47°16' W 122°25'0 0.0
2016-Jun-28 21:32N 47°16' W 122°25'0 0.0
2016-Jun-28 20:33N 47°16' W 122°25'0 0.0
2016-Jun-28 19:34N 47°16' W 122°25'0 0.0
2016-Jun-28 18:31N 47°16' W 122°25'0 0.0
2016-Jun-28 17:33N 47°16' W 122°25'0 0.0
2016-Jun-28 16:33N 47°16' W 122°25'0 0.0
2016-Jun-28 15:34N 47°16' W 122°25'0 0.0
2016-Jun-28 14:34N 47°16' W 122°25'1 0.1
2016-Jun-27 22:28N 47°17' W 122°24'2 0.1
2016-Jun-26 20:33N 47°15' W 122°26'1 1.1
2016-Jun-26 19:33N 47°16' W 122°27'0 0.1
2016-Jun-26 18:33N 47°16' W 122°27'0 0.1
2016-Jun-26 17:33N 47°16' W 122°27'0 0.1
2016-Jun-26 16:33N 47°17' W 122°27'1 0.1
2016-Jun-25 21:32N 47°15' W 122°26'1 1.3
2016-Jun-25 20:32N 47°16' W 122°27'0 0.5
2016-Jun-25 19:33N 47°16' W 122°26'1 1.0
2016-Jun-25 18:32N 47°15' W 122°26'0 0.1
2016-Jun-25 16:33N 47°15' W 122°26'2 2.1
2016-Jun-25 15:28N 47°17' W 122°25'2 0.1
2016-Jun-24 22:06N 47°15' W 122°26'1 1.0
2016-Jun-24 21:33N 47°16' W 122°26'1 0.5
2016-Jun-24 20:33N 47°15' W 122°26'2 2.0
2016-Jun-24 19:23N 47°18' W 122°25'2 2.8
2016-Jun-24 18:32N 47°15' W 122°26'2 2.2
2016-Jun-24 17:33N 47°17' W 122°26'2 0.1
2016-Jun-23 19:23N 47°15' W 122°26'2 2.4
2016-Jun-23 18:33N 47°17' W 122°26'1 0.6
2016-Jun-23 17:33N 47°17' W 122°27'0 0.1
2016-Jun-23 16:34N 47°16' W 122°27'1 0.2
2016-Jun-23 09:24N 47°15' W 122°26'1 1.5
2016-Jun-23 08:33N 47°16' W 122°27'1 0.0
2016-Jun-22 15:33N 47°16' W 122°26'2 1.7
2016-Jun-22 14:17N 47°17' W 122°23'2 0.2
2016-Jun-22 03:05N 47°15' W 122°26'610.6
2016-Jun-22 02:33N 47°20' W 122°29'0 0.1
2016-Jun-22 01:33N 47°20' W 122°29'6 4.4
2016-Jun-22 00:15N 47°15' W 122°26'2 2.4
2016-Jun-21 23:16N 47°17' W 122°23'  
Track history (hours):
 
Tides and Currents Weather Stations Pressure Air Temp Water Temp Dewpoint Dewpoint Depression Visibility Wind Speed Wind Dir Waves Ship Positions

Swift Arrow

Owner: ARROW LAUNCH SERVICE INC, Port Angeles, WA. More information available from US FCC via Universal Licensing System and Coast Guard Vessel Documentation Center.

Last reported at 2016-Jun-29 03:03 UTC. Time now 2016-Jun-29 14:42 UTC.
Position N 47°17' W 122°25'.

Type: Port tender. MMSI: 369021000.

Date/timePositionNaut miles runAvg speedWind from/ knotsBaromVisibWave heightAir tempDewpointWater temp
2016-Jun-29 03:03N 47°17' W 122°25'1 1.6
2016-Jun-29 02:33N 47°16' W 122°25'0 0.1
2016-Jun-29 01:33N 47°16' W 122°25'0 0.1
2016-Jun-29 00:33N 47°16' W 122°25'0 0.1
2016-Jun-28 23:34N 47°16' W 122°25'0 0.0
2016-Jun-28 22:33N 47°16' W 122°25'0 0.0
2016-Jun-28 21:32N 47°16' W 122°25'0 0.0
2016-Jun-28 20:33N 47°16' W 122°25'0 0.0
2016-Jun-28 19:34N 47°16' W 122°25'0 0.0
2016-Jun-28 18:31N 47°16' W 122°25'0 0.0
2016-Jun-28 17:33N 47°16' W 122°25'0 0.0
2016-Jun-28 16:33N 47°16' W 122°25'0 0.0
2016-Jun-28 15:34N 47°16' W 122°25'0 0.0
2016-Jun-28 14:34N 47°16' W 122°25'1 0.1
2016-Jun-27 22:28N 47°17' W 122°24'2 0.1
2016-Jun-26 20:33N 47°15' W 122°26'1 1.1
2016-Jun-26 19:33N 47°16' W 122°27'0 0.1
2016-Jun-26 18:33N 47°16' W 122°27'0 0.1
2016-Jun-26 17:33N 47°16' W 122°27'0 0.1
2016-Jun-26 16:33N 47°17' W 122°27'1 0.1
2016-Jun-25 21:32N 47°15' W 122°26'1 1.3
2016-Jun-25 20:32N 47°16' W 122°27'0 0.5
2016-Jun-25 19:33N 47°16' W 122°26'1 1.0
2016-Jun-25 18:32N 47°15' W 122°26'0 0.1
2016-Jun-25 16:33N 47°15' W 122°26'2 2.1
2016-Jun-25 15:28N 47°17' W 122°25'2 0.1
2016-Jun-24 22:06N 47°15' W 122°26'1 1.0
2016-Jun-24 21:33N 47°16' W 122°26'1 0.5
2016-Jun-24 20:33N 47°15' W 122°26'2 2.0
2016-Jun-24 19:23N 47°18' W 122°25'2 2.8
2016-Jun-24 18:32N 47°15' W 122°26'2 2.2
2016-Jun-24 17:33N 47°17' W 122°26'2 0.1
2016-Jun-23 19:23N 47°15' W 122°26'2 2.4
2016-Jun-23 18:33N 47°17' W 122°26'1 0.6
2016-Jun-23 17:33N 47°17' W 122°27'0 0.1
2016-Jun-23 16:34N 47°16' W 122°27'1 0.2
2016-Jun-23 09:24N 47°15' W 122°26'1 1.5
2016-Jun-23 08:33N 47°16' W 122°27'1 0.0
2016-Jun-22 15:33N 47°16' W 122°26'2 1.7
2016-Jun-22 14:17N 47°17' W 122°23'2 0.2
2016-Jun-22 03:05N 47°15' W 122°26'610.6
2016-Jun-22 02:33N 47°20' W 122°29'0 0.1
2016-Jun-22 01:33N 47°20' W 122°29'6 4.4
2016-Jun-22 00:15N 47°15' W 122°26'2 2.4
2016-Jun-21 23:16N 47°17' W 122°23'  

Dump ship's entire track history